CPA506 VHHH-RJBB
Flight info
| Callsign | CPA506 |
|---|---|
| Flight time | 3h 6m |
| Altitude | 39000 |
| Route | DALOL V631 ENVAR M750 MADOG Y53 NIXOV |
| Aircraft | A346/H-SDE2E3FGHIJ3J4J5M1RWXY/LB1D1 |
Departure
| Time | 2026-05-07 04:35 |
|---|---|
| Airport | Hong Kong International Airport (VHHH) |
Arrival
| Time | 2026-05-07 07:41 |
|---|---|
| Airport | Kansai International Airport (RJBB) |
| Time | Latitude | Longitude | Altitude | Speed | Heading |
|---|---|---|---|---|---|
| 2026-05-07 04:04 | 22.31487 | 113.92557 | 40 ft | 0 kts | 207° |
| 2026-05-07 04:24 | 22.31496 | 113.92562 | 40 ft | 2 kts | 207° |
| 2026-05-07 04:24 | 22.31509 | 113.92570 | 40 ft | 2 kts | 206° |
| 2026-05-07 04:24 | 22.31522 | 113.92577 | 40 ft | 2 kts | 207° |
| 2026-05-07 04:24 | 22.31536 | 113.92584 | 41 ft | 2 kts | 219° |
| 2026-05-07 04:25 | 22.31545 | 113.92596 | 40 ft | 2 kts | 244° |
| 2026-05-07 04:25 | 22.31550 | 113.92611 | 40 ft | 2 kts | 264° |
| 2026-05-07 04:25 | 22.31549 | 113.92627 | 40 ft | 2 kts | 284° |
| 2026-05-07 04:25 | 22.31547 | 113.92636 | 40 ft | 0 kts | 297° |
| 2026-05-07 04:26 | 22.31545 | 113.92640 | 40 ft | 0 kts | 297° |
| 2026-05-07 04:29 | 22.31550 | 113.92629 | 40 ft | 3 kts | 297° |
| 2026-05-07 04:29 | 22.31567 | 113.92593 | 40 ft | 7 kts | 295° |
| 2026-05-07 04:29 | 22.31599 | 113.92519 | 40 ft | 14 kts | 295° |
| 2026-05-07 04:29 | 22.31677 | 113.92440 | 40 ft | 16 kts | 336° |
| 2026-05-07 04:30 | 22.31725 | 113.92345 | 40 ft | 16 kts | 258° |
| 2026-05-07 04:30 | 22.31688 | 113.92226 | 40 ft | 17 kts | 252° |
| 2026-05-07 04:30 | 22.31648 | 113.92097 | 40 ft | 18 kts | 250° |
| 2026-05-07 04:30 | 22.31605 | 113.91962 | 40 ft | 19 kts | 251° |
| 2026-05-07 04:31 | 22.31556 | 113.91810 | 40 ft | 23 kts | 251° |
| 2026-05-07 04:31 | 22.31499 | 113.91632 | 40 ft | 27 kts | 250° |
| 2026-05-07 04:31 | 22.31434 | 113.91431 | 40 ft | 28 kts | 251° |
| 2026-05-07 04:31 | 22.31367 | 113.91224 | 40 ft | 29 kts | 251° |
| 2026-05-07 04:32 | 22.31298 | 113.91011 | 40 ft | 30 kts | 251° |
| 2026-05-07 04:32 | 22.31226 | 113.90794 | 40 ft | 30 kts | 251° |
| 2026-05-07 04:32 | 22.31157 | 113.90580 | 40 ft | 29 kts | 251° |
| 2026-05-07 04:32 | 22.31087 | 113.90367 | 40 ft | 30 kts | 251° |
| 2026-05-07 04:33 | 22.31017 | 113.90150 | 40 ft | 31 kts | 250° |
| 2026-05-07 04:33 | 22.30946 | 113.89934 | 40 ft | 18 kts | 251° |
| 2026-05-07 04:33 | 22.30946 | 113.89822 | 40 ft | 5 kts | 319° |
| 2026-05-07 04:33 | 22.30950 | 113.89819 | 40 ft | 1 kts | 326° |
| 2026-05-07 04:34 | 22.30981 | 113.89802 | 40 ft | 9 kts | 336° |
| 2026-05-07 04:34 | 22.31053 | 113.89786 | 40 ft | 11 kts | 6° |
| 2026-05-07 04:34 | 22.31106 | 113.89848 | 40 ft | 12 kts | 70° |
| 2026-05-07 04:34 | 22.31141 | 113.89951 | 40 ft | 20 kts | 70° |
| 2026-05-07 04:35 | 22.31273 | 113.90356 | 40 ft | 98 kts | 71° |
| 2026-05-07 04:35 | 22.31587 | 113.91328 | 41 ft | 169 kts | 71° |
| 2026-05-07 04:35 | 22.32021 | 113.92687 | 551 ft | 188 kts | 72° |
| 2026-05-07 04:35 | 22.32429 | 113.93986 | 1472 ft | 182 kts | 73° |
| 2026-05-07 04:36 | 22.32866 | 113.95283 | 1960 ft | 197 kts | 70° |
| 2026-05-07 04:36 | 22.33548 | 113.96725 | 2021 ft | 229 kts | 60° |
| 2026-05-07 04:36 | 22.34451 | 113.98270 | 2265 ft | 252 kts | 60° |
| 2026-05-07 04:36 | 22.35377 | 113.99873 | 3040 ft | 252 kts | 59° |
| 2026-05-07 04:37 | 22.36350 | 114.01505 | 3816 ft | 255 kts | 58° |
| 2026-05-07 04:37 | 22.37334 | 114.03110 | 4534 ft | 259 kts | 57° |
| 2026-05-07 04:37 | 22.38362 | 114.04762 | 5254 ft | 264 kts | 56° |
| 2026-05-07 04:37 | 22.39399 | 114.06416 | 5966 ft | 268 kts | 56° |
| 2026-05-07 04:38 | 22.40232 | 114.08204 | 6627 ft | 272 kts | 81° |
| 2026-05-07 04:38 | 22.40113 | 114.10233 | 7158 ft | 278 kts | 111° |
| 2026-05-07 04:38 | 22.39286 | 114.12193 | 7622 ft | 290 kts | 119° |
| 2026-05-07 04:38 | 22.38323 | 114.14140 | 8256 ft | 295 kts | 119° |
| 2026-05-07 04:39 | 22.37398 | 114.16114 | 8936 ft | 299 kts | 117° |
| 2026-05-07 04:39 | 22.36495 | 114.18191 | 9615 ft | 302 kts | 116° |
| 2026-05-07 04:39 | 22.35628 | 114.20282 | 10250 ft | 306 kts | 115° |
| 2026-05-07 04:39 | 22.34753 | 114.22435 | 10617 ft | 320 kts | 115° |
| 2026-05-07 04:40 | 22.33837 | 114.24684 | 10902 ft | 336 kts | 117° |
| 2026-05-07 04:40 | 22.32512 | 114.26802 | 11158 ft | 348 kts | 137° |
| 2026-05-07 04:40 | 22.30488 | 114.28370 | 11421 ft | 359 kts | 156° |
| 2026-05-07 04:40 | 22.28150 | 114.29496 | 11695 ft | 373 kts | 158° |
| 2026-05-07 04:41 | 22.25722 | 114.30700 | 11962 ft | 388 kts | 154° |
| 2026-05-07 04:41 | 22.23301 | 114.32161 | 12422 ft | 396 kts | 150° |
| 2026-05-07 04:41 | 22.20942 | 114.33868 | 13049 ft | 400 kts | 146° |
| 2026-05-07 04:41 | 22.18679 | 114.35642 | 13647 ft | 403 kts | 145° |
| 2026-05-07 04:42 | 22.16408 | 114.37444 | 14199 ft | 407 kts | 145° |
| 2026-05-07 04:42 | 22.14114 | 114.39263 | 14734 ft | 411 kts | 146° |
| 2026-05-07 04:42 | 22.11795 | 114.41099 | 15250 ft | 414 kts | 146° |
| 2026-05-07 04:42 | 22.09465 | 114.42939 | 15766 ft | 418 kts | 146° |
| 2026-05-07 04:43 | 22.07119 | 114.44788 | 16278 ft | 421 kts | 146° |
| 2026-05-07 04:43 | 22.04742 | 114.46661 | 16758 ft | 424 kts | 146° |
| 2026-05-07 04:43 | 22.02359 | 114.48538 | 17211 ft | 427 kts | 146° |
| 2026-05-07 04:43 | 21.99951 | 114.50435 | 17696 ft | 430 kts | 145° |
| 2026-05-07 04:44 | 21.97618 | 114.52485 | 18141 ft | 436 kts | 140° |
| 2026-05-07 04:44 | 21.95454 | 114.54801 | 18589 ft | 440 kts | 134° |
| 2026-05-07 04:44 | 21.93500 | 114.57344 | 19018 ft | 445 kts | 129° |
| 2026-05-07 04:44 | 21.91621 | 114.60001 | 19454 ft | 448 kts | 128° |
| 2026-05-07 04:45 | 21.89761 | 114.62672 | 19874 ft | 451 kts | 128° |
| 2026-05-07 04:45 | 21.87853 | 114.65409 | 20282 ft | 454 kts | 128° |
| 2026-05-07 04:45 | 21.85947 | 114.68134 | 20675 ft | 457 kts | 128° |
| 2026-05-07 04:45 | 21.84043 | 114.70846 | 21060 ft | 460 kts | 128° |
| 2026-05-07 04:46 | 21.82102 | 114.73605 | 21443 ft | 463 kts | 128° |
| 2026-05-07 04:46 | 21.80167 | 114.76349 | 21816 ft | 466 kts | 128° |
| 2026-05-07 04:46 | 21.78205 | 114.79128 | 22178 ft | 469 kts | 128° |
| 2026-05-07 04:46 | 21.76290 | 114.82000 | 22530 ft | 473 kts | 121° |
| 2026-05-07 04:47 | 21.74947 | 114.85227 | 22886 ft | 477 kts | 108° |
| 2026-05-07 04:47 | 21.74299 | 114.88708 | 23285 ft | 478 kts | 95° |
| 2026-05-07 04:47 | 21.74235 | 114.92255 | 23692 ft | 479 kts | 89° |
| 2026-05-07 04:47 | 21.74272 | 114.95854 | 24072 ft | 482 kts | 89° |
| 2026-05-07 04:48 | 21.74313 | 114.99466 | 24435 ft | 485 kts | 89° |
| 2026-05-07 04:48 | 21.74340 | 115.03105 | 24803 ft | 488 kts | 89° |
| 2026-05-07 04:48 | 21.74353 | 115.06726 | 25166 ft | 491 kts | 89° |
| 2026-05-07 04:48 | 21.74355 | 115.10394 | 25538 ft | 493 kts | 89° |
| 2026-05-07 04:49 | 21.74352 | 115.14095 | 25901 ft | 496 kts | 89° |
| 2026-05-07 04:49 | 21.74346 | 115.17818 | 26244 ft | 499 kts | 89° |
| 2026-05-07 04:49 | 21.74340 | 115.21524 | 26571 ft | 502 kts | 89° |
| 2026-05-07 04:49 | 21.74334 | 115.25262 | 26908 ft | 505 kts | 89° |
| 2026-05-07 04:50 | 21.74327 | 115.29063 | 27263 ft | 507 kts | 89° |
| 2026-05-07 04:50 | 21.74319 | 115.32873 | 27595 ft | 510 kts | 89° |
| 2026-05-07 04:50 | 21.74309 | 115.36649 | 27921 ft | 513 kts | 89° |
| 2026-05-07 04:50 | 21.74300 | 115.40488 | 28262 ft | 515 kts | 89° |
| 2026-05-07 04:51 | 21.74289 | 115.44331 | 28704 ft | 515 kts | 89° |
| 2026-05-07 04:51 | 21.74277 | 115.48133 | 29219 ft | 512 kts | 89° |
| 2026-05-07 04:51 | 21.74263 | 115.51964 | 29730 ft | 511 kts | 89° |
| 2026-05-07 04:51 | 21.74248 | 115.55785 | 30202 ft | 510 kts | 89° |
| 2026-05-07 04:52 | 21.74233 | 115.59585 | 30665 ft | 509 kts | 89° |
| 2026-05-07 04:52 | 21.74219 | 115.63366 | 31134 ft | 508 kts | 88° |
| 2026-05-07 04:52 | 21.74205 | 115.67156 | 31599 ft | 506 kts | 89° |
| 2026-05-07 04:52 | 21.74190 | 115.70881 | 32024 ft | 506 kts | 88° |
| 2026-05-07 04:53 | 21.74174 | 115.74692 | 32449 ft | 505 kts | 88° |
| 2026-05-07 04:53 | 21.74158 | 115.78409 | 32874 ft | 504 kts | 88° |
| 2026-05-07 04:53 | 21.74141 | 115.82187 | 33335 ft | 504 kts | 88° |
| 2026-05-07 04:53 | 21.74124 | 115.85925 | 33792 ft | 503 kts | 88° |
| 2026-05-07 04:54 | 21.74105 | 115.89666 | 34231 ft | 502 kts | 88° |
| 2026-05-07 04:54 | 21.74086 | 115.93430 | 34665 ft | 501 kts | 88° |
| 2026-05-07 04:54 | 21.74066 | 115.97139 | 35059 ft | 500 kts | 88° |
| 2026-05-07 04:54 | 21.74044 | 116.00895 | 35448 ft | 499 kts | 88° |
| 2026-05-07 04:55 | 21.74021 | 116.04619 | 35801 ft | 499 kts | 88° |
| 2026-05-07 04:55 | 21.73998 | 116.08298 | 36104 ft | 499 kts | 88° |
| 2026-05-07 04:55 | 21.73974 | 116.12025 | 36401 ft | 499 kts | 88° |
| 2026-05-07 04:55 | 21.73949 | 116.15775 | 36676 ft | 499 kts | 88° |
| 2026-05-07 04:56 | 21.73924 | 116.19466 | 36942 ft | 499 kts | 88° |
| 2026-05-07 04:56 | 21.73898 | 116.23207 | 37188 ft | 499 kts | 88° |
| 2026-05-07 04:56 | 21.73870 | 116.26910 | 37432 ft | 499 kts | 88° |
| 2026-05-07 04:56 | 21.73842 | 116.30648 | 37617 ft | 500 kts | 88° |
| 2026-05-07 04:57 | 21.73813 | 116.34377 | 37790 ft | 501 kts | 88° |
| 2026-05-07 04:57 | 21.73783 | 116.38123 | 37941 ft | 503 kts | 88° |
| 2026-05-07 04:57 | 21.73753 | 116.41859 | 38088 ft | 504 kts | 88° |
| 2026-05-07 04:57 | 21.73720 | 116.45622 | 38227 ft | 505 kts | 88° |
| 2026-05-07 04:58 | 21.73687 | 116.49402 | 38371 ft | 506 kts | 88° |
| 2026-05-07 04:58 | 21.73652 | 116.53179 | 38476 ft | 507 kts | 88° |
| 2026-05-07 04:58 | 21.73618 | 116.56960 | 38604 ft | 508 kts | 88° |
| 2026-05-07 04:58 | 21.73581 | 116.60737 | 38768 ft | 508 kts | 88° |
| 2026-05-07 04:59 | 21.73545 | 116.64532 | 38907 ft | 509 kts | 88° |
| 2026-05-07 04:59 | 21.73526 | 116.68316 | 38936 ft | 509 kts | 86° |
| 2026-05-07 04:59 | 21.74049 | 116.75879 | 38937 ft | 507 kts | 79° |
| 2026-05-07 05:00 | 21.75445 | 116.83285 | 38942 ft | 503 kts | 71° |
| 2026-05-07 05:00 | 21.77642 | 116.90337 | 38943 ft | 500 kts | 65° |
| 2026-05-07 05:01 | 21.80185 | 116.97292 | 38941 ft | 499 kts | 65° |
| 2026-05-07 05:01 | 21.82708 | 117.04204 | 38942 ft | 498 kts | 65° |
| 2026-05-07 05:02 | 21.85220 | 117.11142 | 38943 ft | 499 kts | 65° |
| 2026-05-07 05:02 | 21.87731 | 117.18105 | 38942 ft | 500 kts | 65° |
| 2026-05-07 05:03 | 21.90236 | 117.25065 | 38935 ft | 500 kts | 65° |
| 2026-05-07 05:03 | 21.92725 | 117.31990 | 38928 ft | 500 kts | 65° |
| 2026-05-07 05:04 | 21.95225 | 117.38964 | 38927 ft | 499 kts | 65° |
| 2026-05-07 05:04 | 21.97737 | 117.45921 | 38927 ft | 498 kts | 63° |
| 2026-05-07 05:05 | 22.00718 | 117.52612 | 38929 ft | 494 kts | 57° |
| 2026-05-07 05:05 | 22.04207 | 117.58893 | 38928 ft | 492 kts | 54° |
| 2026-05-07 05:06 | 22.07798 | 117.65175 | 38923 ft | 492 kts | 54° |
| 2026-05-07 05:06 | 22.11368 | 117.71452 | 38928 ft | 492 kts | 55° |
| 2026-05-07 05:07 | 22.14926 | 117.77734 | 38929 ft | 492 kts | 55° |
| 2026-05-07 05:07 | 22.18482 | 117.84023 | 38927 ft | 491 kts | 55° |
| 2026-05-07 05:08 | 22.22034 | 117.90313 | 38928 ft | 491 kts | 55° |
| 2026-05-07 05:08 | 22.25582 | 117.96606 | 38926 ft | 491 kts | 55° |
| 2026-05-07 05:09 | 22.29143 | 118.02872 | 38929 ft | 492 kts | 54° |
| 2026-05-07 05:09 | 22.32795 | 118.09103 | 38926 ft | 492 kts | 54° |
| 2026-05-07 05:10 | 22.36422 | 118.15307 | 38926 ft | 491 kts | 54° |
| 2026-05-07 05:10 | 22.40062 | 118.21561 | 38928 ft | 491 kts | 54° |
| 2026-05-07 05:11 | 22.43639 | 118.27831 | 38924 ft | 492 kts | 55° |
| 2026-05-07 05:11 | 22.47189 | 118.34116 | 38924 ft | 492 kts | 55° |
| 2026-05-07 05:12 | 22.50754 | 118.40426 | 38927 ft | 491 kts | 55° |
| 2026-05-07 05:12 | 22.54299 | 118.46706 | 38925 ft | 491 kts | 55° |
| 2026-05-07 05:13 | 22.57847 | 118.52985 | 38925 ft | 490 kts | 54° |
| 2026-05-07 05:13 | 22.61409 | 118.59221 | 38925 ft | 490 kts | 54° |
| 2026-05-07 05:14 | 22.65000 | 118.65513 | 38924 ft | 491 kts | 55° |
| 2026-05-07 05:14 | 22.68574 | 118.71792 | 38926 ft | 490 kts | 55° |
| 2026-05-07 05:15 | 22.72126 | 118.78045 | 38925 ft | 490 kts | 55° |
| 2026-05-07 05:15 | 22.75685 | 118.84320 | 38925 ft | 490 kts | 55° |
| 2026-05-07 05:16 | 22.79257 | 118.90625 | 38925 ft | 490 kts | 55° |
| 2026-05-07 05:16 | 22.82816 | 118.96917 | 38924 ft | 491 kts | 55° |
| 2026-05-07 05:17 | 22.86364 | 119.03193 | 38926 ft | 490 kts | 55° |
| 2026-05-07 05:17 | 22.89927 | 119.09506 | 38927 ft | 491 kts | 55° |
| 2026-05-07 05:18 | 22.93483 | 119.15816 | 38926 ft | 491 kts | 55° |
| 2026-05-07 05:18 | 22.97013 | 119.22084 | 38924 ft | 491 kts | 55° |
| 2026-05-07 05:19 | 23.00566 | 119.28404 | 38925 ft | 491 kts | 54° |
| 2026-05-07 05:19 | 23.04114 | 119.34722 | 38924 ft | 491 kts | 54° |
| 2026-05-07 05:20 | 23.07652 | 119.41030 | 38931 ft | 490 kts | 54° |
| 2026-05-07 05:20 | 23.11182 | 119.47334 | 38934 ft | 489 kts | 54° |
| 2026-05-07 05:21 | 23.16460 | 119.56780 | 38926 ft | 489 kts | 54° |
| 2026-05-07 05:22 | 23.19978 | 119.63069 | 38927 ft | 489 kts | 54° |
| 2026-05-07 05:22 | 23.23503 | 119.69374 | 38927 ft | 489 kts | 54° |
| 2026-05-07 05:23 | 23.27026 | 119.75694 | 38925 ft | 489 kts | 54° |
| 2026-05-07 05:23 | 23.30554 | 119.82032 | 38923 ft | 489 kts | 54° |
| 2026-05-07 05:24 | 23.34175 | 119.88281 | 38925 ft | 487 kts | 50° |
| 2026-05-07 05:24 | 23.38282 | 119.94029 | 38929 ft | 482 kts | 44° |
| 2026-05-07 05:25 | 23.42904 | 119.99237 | 38928 ft | 478 kts | 39° |
| 2026-05-07 05:25 | 23.47749 | 120.04218 | 38933 ft | 477 kts | 38° |
| 2026-05-07 05:26 | 23.52558 | 120.09153 | 38934 ft | 477 kts | 38° |
| 2026-05-07 05:26 | 23.57389 | 120.14130 | 38935 ft | 478 kts | 38° |
| 2026-05-07 05:27 | 23.62213 | 120.19110 | 38935 ft | 477 kts | 38° |
| 2026-05-07 05:27 | 23.67019 | 120.24079 | 38939 ft | 477 kts | 38° |
| 2026-05-07 05:28 | 23.71825 | 120.29054 | 38937 ft | 477 kts | 38° |
| 2026-05-07 05:28 | 23.76645 | 120.34049 | 38939 ft | 477 kts | 38° |
| 2026-05-07 05:29 | 23.81439 | 120.39025 | 38944 ft | 478 kts | 38° |
| 2026-05-07 05:29 | 23.86248 | 120.44022 | 38946 ft | 478 kts | 38° |
| 2026-05-07 05:30 | 23.91071 | 120.49037 | 38942 ft | 478 kts | 38° |
| 2026-05-07 05:30 | 23.95868 | 120.54072 | 38947 ft | 479 kts | 38° |
| 2026-05-07 05:31 | 24.00645 | 120.59113 | 38961 ft | 479 kts | 38° |
| 2026-05-07 05:31 | 24.05445 | 120.64184 | 38968 ft | 479 kts | 38° |
| 2026-05-07 05:32 | 24.10235 | 120.69247 | 38976 ft | 480 kts | 38° |
| 2026-05-07 05:32 | 24.15045 | 120.74337 | 38987 ft | 480 kts | 38° |
| 2026-05-07 05:33 | 24.19706 | 120.79276 | 39010 ft | 481 kts | 38° |
| 2026-05-07 05:33 | 24.24489 | 120.84351 | 39047 ft | 481 kts | 38° |
| 2026-05-07 05:34 | 24.29282 | 120.89444 | 39090 ft | 481 kts | 38° |
| 2026-05-07 05:34 | 24.34083 | 120.94552 | 39119 ft | 480 kts | 38° |
| 2026-05-07 05:35 | 24.38884 | 120.99665 | 39148 ft | 481 kts | 39° |
| 2026-05-07 05:35 | 24.43417 | 121.05069 | 39164 ft | 486 kts | 45° |
| 2026-05-07 05:36 | 24.47643 | 121.10850 | 39173 ft | 486 kts | 46° |
| 2026-05-07 05:36 | 24.51812 | 121.16619 | 39186 ft | 486 kts | 45° |
| 2026-05-07 05:37 | 24.56020 | 121.22440 | 39181 ft | 486 kts | 45° |
| 2026-05-07 05:37 | 24.60196 | 121.28213 | 39161 ft | 485 kts | 45° |
| 2026-05-07 05:38 | 24.64394 | 121.34023 | 39114 ft | 486 kts | 45° |
| 2026-05-07 05:38 | 24.68571 | 121.39810 | 39071 ft | 484 kts | 45° |
| 2026-05-07 05:39 | 24.72762 | 121.45624 | 39032 ft | 484 kts | 45° |
| 2026-05-07 05:39 | 24.76933 | 121.51418 | 38997 ft | 484 kts | 45° |
| 2026-05-07 05:40 | 24.81104 | 121.57223 | 38972 ft | 484 kts | 45° |
| 2026-05-07 05:40 | 24.85260 | 121.63013 | 38949 ft | 484 kts | 45° |
| 2026-05-07 05:41 | 24.89415 | 121.68796 | 38939 ft | 483 kts | 44° |
| 2026-05-07 05:41 | 24.93756 | 121.74376 | 38939 ft | 482 kts | 43° |
| 2026-05-07 05:42 | 24.98147 | 121.79948 | 38941 ft | 482 kts | 43° |
| 2026-05-07 05:42 | 25.02538 | 121.85540 | 38935 ft | 481 kts | 42° |
| 2026-05-07 05:43 | 25.06909 | 121.91119 | 38926 ft | 481 kts | 42° |
| 2026-05-07 05:43 | 25.11243 | 121.96662 | 38918 ft | 480 kts | 42° |
| 2026-05-07 05:44 | 25.15594 | 122.02246 | 38908 ft | 482 kts | 43° |
| 2026-05-07 05:44 | 25.19933 | 122.07866 | 38910 ft | 483 kts | 43° |
| 2026-05-07 05:45 | 25.24293 | 122.13525 | 38905 ft | 483 kts | 43° |
| 2026-05-07 05:45 | 25.28622 | 122.19154 | 38909 ft | 481 kts | 43° |
| 2026-05-07 05:46 | 25.32952 | 122.24788 | 38911 ft | 481 kts | 43° |
| 2026-05-07 05:46 | 25.37262 | 122.30405 | 38905 ft | 482 kts | 43° |
| 2026-05-07 05:47 | 25.41599 | 122.36065 | 38906 ft | 482 kts | 42° |
| 2026-05-07 05:47 | 25.45917 | 122.41707 | 38912 ft | 482 kts | 43° |
| 2026-05-07 05:48 | 25.50250 | 122.47375 | 38907 ft | 483 kts | 42° |
| 2026-05-07 05:48 | 25.54585 | 122.53011 | 38910 ft | 482 kts | 42° |
| 2026-05-07 05:49 | 25.58922 | 122.58631 | 38907 ft | 483 kts | 42° |
| 2026-05-07 05:49 | 25.63284 | 122.64307 | 38911 ft | 483 kts | 42° |
| 2026-05-07 05:50 | 25.67632 | 122.69968 | 38904 ft | 485 kts | 42° |
| 2026-05-07 05:50 | 25.72005 | 122.75678 | 38906 ft | 484 kts | 42° |
| 2026-05-07 05:51 | 25.76357 | 122.81362 | 38911 ft | 486 kts | 42° |
| 2026-05-07 05:51 | 25.80725 | 122.87081 | 38920 ft | 486 kts | 42° |
| 2026-05-07 05:52 | 25.85065 | 122.92770 | 38928 ft | 485 kts | 42° |
| 2026-05-07 05:52 | 25.89421 | 122.98486 | 38924 ft | 485 kts | 42° |
| 2026-05-07 05:53 | 25.93776 | 123.04194 | 38930 ft | 486 kts | 41° |
| 2026-05-07 05:53 | 25.98116 | 123.09894 | 38928 ft | 486 kts | 42° |
| 2026-05-07 05:54 | 26.02483 | 123.15640 | 38933 ft | 486 kts | 42° |
| 2026-05-07 05:54 | 26.06097 | 123.20406 | 38930 ft | 486 kts | 41° |
| 2026-05-07 05:55 | 26.11172 | 123.27113 | 38931 ft | 485 kts | 41° |
| 2026-05-07 05:55 | 26.15534 | 123.32873 | 38928 ft | 486 kts | 41° |
| 2026-05-07 05:56 | 26.19857 | 123.38596 | 38932 ft | 488 kts | 42° |
| 2026-05-07 05:56 | 26.24227 | 123.44387 | 38928 ft | 487 kts | 42° |
| 2026-05-07 05:57 | 26.28589 | 123.50179 | 38930 ft | 487 kts | 42° |
| 2026-05-07 05:57 | 26.32921 | 123.55934 | 38928 ft | 488 kts | 42° |
| 2026-05-07 05:58 | 26.37271 | 123.61725 | 38927 ft | 488 kts | 41° |
| 2026-05-07 05:58 | 26.41630 | 123.67532 | 38925 ft | 489 kts | 42° |
| 2026-05-07 05:59 | 26.45981 | 123.73338 | 38925 ft | 488 kts | 42° |
| 2026-05-07 05:59 | 26.50314 | 123.79127 | 38926 ft | 489 kts | 42° |
| 2026-05-07 06:00 | 26.54669 | 123.84956 | 38926 ft | 490 kts | 42° |
| 2026-05-07 06:00 | 26.59031 | 123.90803 | 38923 ft | 491 kts | 42° |
| 2026-05-07 06:01 | 26.63396 | 123.96663 | 38923 ft | 490 kts | 42° |
| 2026-05-07 06:01 | 26.67749 | 124.02499 | 38923 ft | 491 kts | 42° |
| 2026-05-07 06:02 | 26.72140 | 124.08359 | 38926 ft | 492 kts | 42° |
| 2026-05-07 06:02 | 26.75768 | 124.13209 | 38928 ft | 493 kts | 42° |
| 2026-05-07 06:03 | 26.80893 | 124.20084 | 38930 ft | 495 kts | 42° |
| 2026-05-07 06:03 | 26.84567 | 124.25017 | 38945 ft | 495 kts | 43° |
| 2026-05-07 06:04 | 26.89701 | 124.31928 | 38946 ft | 496 kts | 43° |
| 2026-05-07 06:04 | 26.94090 | 124.37846 | 38944 ft | 497 kts | 43° |
| 2026-05-07 06:05 | 26.98509 | 124.43806 | 38947 ft | 497 kts | 43° |
| 2026-05-07 06:05 | 27.02941 | 124.49773 | 38947 ft | 498 kts | 43° |
| 2026-05-07 06:06 | 27.07364 | 124.55739 | 38950 ft | 499 kts | 43° |
| 2026-05-07 06:06 | 27.11763 | 124.61687 | 38949 ft | 500 kts | 44° |
| 2026-05-07 06:07 | 27.16199 | 124.67703 | 38945 ft | 500 kts | 44° |
| 2026-05-07 06:07 | 27.20624 | 124.73709 | 38945 ft | 500 kts | 44° |
| 2026-05-07 06:08 | 27.24321 | 124.78729 | 38945 ft | 501 kts | 44° |
| 2026-05-07 06:08 | 27.29493 | 124.85762 | 38946 ft | 502 kts | 44° |
| 2026-05-07 06:09 | 27.33927 | 124.91811 | 38948 ft | 502 kts | 44° |
| 2026-05-07 06:09 | 27.38358 | 124.97864 | 38947 ft | 503 kts | 44° |
| 2026-05-07 06:10 | 27.42788 | 125.03870 | 38945 ft | 501 kts | 44° |
| 2026-05-07 06:10 | 27.46517 | 125.08881 | 38952 ft | 501 kts | 44° |
| 2026-05-07 06:11 | 27.50974 | 125.14887 | 38949 ft | 502 kts | 44° |
| 2026-05-07 06:11 | 27.56209 | 125.21957 | 38948 ft | 504 kts | 44° |
| 2026-05-07 06:12 | 27.60698 | 125.28036 | 38949 ft | 505 kts | 44° |
| 2026-05-07 06:12 | 27.65162 | 125.34095 | 38946 ft | 505 kts | 44° |
| 2026-05-07 06:13 | 27.69649 | 125.40189 | 38952 ft | 506 kts | 44° |
| 2026-05-07 06:13 | 27.74123 | 125.46276 | 38949 ft | 505 kts | 44° |
| 2026-05-07 06:14 | 27.78593 | 125.52365 | 38950 ft | 506 kts | 44° |
| 2026-05-07 06:14 | 27.83090 | 125.58497 | 38957 ft | 507 kts | 44° |
| 2026-05-07 06:15 | 27.87562 | 125.64610 | 38962 ft | 507 kts | 44° |
| 2026-05-07 06:15 | 27.91333 | 125.69767 | 38966 ft | 509 kts | 44° |
| 2026-05-07 06:16 | 27.96561 | 125.76932 | 38968 ft | 508 kts | 45° |
| 2026-05-07 06:16 | 28.01040 | 125.83076 | 38964 ft | 508 kts | 45° |
| 2026-05-07 06:17 | 28.05520 | 125.89231 | 38965 ft | 506 kts | 45° |
| 2026-05-07 06:17 | 28.09978 | 125.95362 | 38966 ft | 507 kts | 45° |
| 2026-05-07 06:18 | 28.14457 | 126.01538 | 38964 ft | 508 kts | 45° |
| 2026-05-07 06:18 | 28.18915 | 126.07690 | 38958 ft | 508 kts | 45° |
| 2026-05-07 06:19 | 28.23389 | 126.13875 | 38953 ft | 508 kts | 45° |
| 2026-05-07 06:19 | 28.27130 | 126.19051 | 38951 ft | 508 kts | 45° |
| 2026-05-07 06:20 | 28.31595 | 126.25240 | 38952 ft | 508 kts | 45° |
| 2026-05-07 06:20 | 28.36816 | 126.32486 | 38951 ft | 509 kts | 45° |
| 2026-05-07 06:21 | 28.41285 | 126.38698 | 38949 ft | 510 kts | 45° |
| 2026-05-07 06:21 | 28.45756 | 126.44927 | 38953 ft | 510 kts | 45° |
| 2026-05-07 06:22 | 28.50203 | 126.51127 | 38946 ft | 510 kts | 45° |
| 2026-05-07 06:22 | 28.56186 | 126.59480 | 38952 ft | 510 kts | 45° |
| 2026-05-07 06:23 | 28.61370 | 126.66737 | 38946 ft | 510 kts | 45° |
| 2026-05-07 06:23 | 28.65864 | 126.73033 | 38949 ft | 510 kts | 46° |
| 2026-05-07 06:24 | 28.70314 | 126.79280 | 38949 ft | 511 kts | 45° |
| 2026-05-07 06:24 | 28.74020 | 126.84491 | 38951 ft | 511 kts | 46° |
| 2026-05-07 06:25 | 28.78500 | 126.90798 | 38949 ft | 511 kts | 45° |
| 2026-05-07 06:25 | 28.82950 | 126.97070 | 38950 ft | 512 kts | 46° |
| 2026-05-07 06:26 | 28.87432 | 127.03397 | 38949 ft | 513 kts | 46° |
| 2026-05-07 06:26 | 28.92641 | 127.10765 | 38948 ft | 512 kts | 46° |
| 2026-05-07 06:27 | 28.97087 | 127.17059 | 38947 ft | 512 kts | 46° |
| 2026-05-07 06:27 | 29.00817 | 127.22349 | 38948 ft | 513 kts | 46° |
| 2026-05-07 06:28 | 29.06009 | 127.29728 | 38949 ft | 512 kts | 46° |
| 2026-05-07 06:28 | 29.10476 | 127.36086 | 38948 ft | 512 kts | 46° |
| 2026-05-07 06:29 | 29.14173 | 127.41351 | 38949 ft | 513 kts | 46° |
| 2026-05-07 06:29 | 29.19353 | 127.48748 | 38948 ft | 512 kts | 46° |
| 2026-05-07 06:30 | 29.23048 | 127.54030 | 38950 ft | 512 kts | 46° |
| 2026-05-07 06:30 | 29.27496 | 127.60397 | 38951 ft | 512 kts | 46° |
| 2026-05-07 06:31 | 29.31926 | 127.66750 | 38948 ft | 512 kts | 47° |
| 2026-05-07 06:31 | 29.36364 | 127.73124 | 38952 ft | 512 kts | 47° |
| 2026-05-07 06:32 | 29.40816 | 127.79532 | 38954 ft | 512 kts | 47° |
| 2026-05-07 06:32 | 29.45952 | 127.86938 | 38960 ft | 512 kts | 47° |
| 2026-05-07 06:33 | 29.49653 | 127.92280 | 38964 ft | 512 kts | 47° |
| 2026-05-07 06:33 | 29.54059 | 127.98646 | 38962 ft | 511 kts | 47° |
| 2026-05-07 06:34 | 29.58467 | 128.05003 | 38960 ft | 511 kts | 47° |
| 2026-05-07 06:34 | 29.62874 | 128.11379 | 38960 ft | 510 kts | 47° |
| 2026-05-07 06:35 | 29.67293 | 128.17780 | 38964 ft | 511 kts | 47° |
| 2026-05-07 06:35 | 29.71690 | 128.24165 | 38961 ft | 511 kts | 47° |
| 2026-05-07 06:36 | 29.76084 | 128.30556 | 38961 ft | 511 kts | 47° |
| 2026-05-07 06:36 | 29.80503 | 128.36993 | 38962 ft | 512 kts | 47° |
| 2026-05-07 06:37 | 29.84883 | 128.43388 | 38959 ft | 512 kts | 47° |
| 2026-05-07 06:37 | 29.89297 | 128.49840 | 38958 ft | 512 kts | 47° |
| 2026-05-07 06:38 | 29.93689 | 128.56268 | 38960 ft | 512 kts | 47° |
| 2026-05-07 06:38 | 29.98079 | 128.62707 | 38957 ft | 512 kts | 47° |
| 2026-05-07 06:39 | 30.02463 | 128.69150 | 38956 ft | 513 kts | 48° |
| 2026-05-07 06:39 | 30.06865 | 128.75626 | 38953 ft | 513 kts | 48° |
| 2026-05-07 06:40 | 30.11992 | 128.83182 | 38957 ft | 513 kts | 48° |
| 2026-05-07 06:40 | 30.15647 | 128.88582 | 38955 ft | 513 kts | 48° |
| 2026-05-07 06:41 | 30.20024 | 128.95058 | 38952 ft | 514 kts | 48° |
| 2026-05-07 06:41 | 30.24406 | 129.01546 | 38948 ft | 514 kts | 48° |
| 2026-05-07 06:42 | 30.28805 | 129.08054 | 38953 ft | 514 kts | 48° |
| 2026-05-07 06:42 | 30.33204 | 129.14580 | 38954 ft | 514 kts | 48° |
| 2026-05-07 06:43 | 30.37596 | 129.21112 | 38948 ft | 515 kts | 48° |
| 2026-05-07 06:43 | 30.42691 | 129.28706 | 38943 ft | 514 kts | 48° |
| 2026-05-07 06:44 | 30.46334 | 129.34146 | 38941 ft | 515 kts | 48° |
| 2026-05-07 06:44 | 30.50722 | 129.40707 | 38942 ft | 514 kts | 48° |
| 2026-05-07 06:45 | 30.55100 | 129.47266 | 38945 ft | 514 kts | 48° |
| 2026-05-07 06:45 | 30.60159 | 129.54858 | 38947 ft | 514 kts | 48° |
| 2026-05-07 06:46 | 30.63813 | 129.60345 | 38947 ft | 514 kts | 48° |
| 2026-05-07 06:46 | 30.68175 | 129.66914 | 38943 ft | 514 kts | 49° |
| 2026-05-07 06:47 | 30.73230 | 129.74541 | 38944 ft | 514 kts | 49° |
| 2026-05-07 06:47 | 30.77603 | 129.81152 | 38946 ft | 515 kts | 49° |
| 2026-05-07 06:48 | 30.81221 | 129.86638 | 38945 ft | 514 kts | 49° |
| 2026-05-07 06:48 | 30.85419 | 129.93324 | 38943 ft | 517 kts | 54° |
| 2026-05-07 06:49 | 30.89239 | 130.00403 | 38945 ft | 517 kts | 56° |
| 2026-05-07 06:49 | 30.92990 | 130.07501 | 38953 ft | 518 kts | 56° |
| 2026-05-07 06:50 | 30.96756 | 130.14622 | 38951 ft | 517 kts | 55° |
| 2026-05-07 06:50 | 31.00528 | 130.21751 | 38950 ft | 517 kts | 55° |
| 2026-05-07 06:51 | 31.04290 | 130.28865 | 38949 ft | 518 kts | 56° |
| 2026-05-07 06:51 | 31.08070 | 130.36028 | 38953 ft | 517 kts | 56° |
| 2026-05-07 06:52 | 31.11814 | 130.43143 | 38949 ft | 517 kts | 56° |
| 2026-05-07 06:52 | 31.15553 | 130.50256 | 38957 ft | 517 kts | 56° |
| 2026-05-07 06:53 | 31.19311 | 130.57419 | 38956 ft | 516 kts | 56° |
| 2026-05-07 06:53 | 31.23040 | 130.64535 | 38954 ft | 515 kts | 56° |
| 2026-05-07 06:54 | 31.26767 | 130.71661 | 38953 ft | 516 kts | 56° |
| 2026-05-07 06:54 | 31.30481 | 130.78777 | 38958 ft | 515 kts | 57° |
| 2026-05-07 06:55 | 31.34217 | 130.85951 | 38959 ft | 515 kts | 57° |
| 2026-05-07 06:55 | 31.37922 | 130.93080 | 38969 ft | 516 kts | 57° |
| 2026-05-07 06:56 | 31.42253 | 131.01427 | 38963 ft | 515 kts | 57° |
| 2026-05-07 06:56 | 31.45950 | 131.08571 | 38955 ft | 515 kts | 57° |
| 2026-05-07 06:57 | 31.49026 | 131.14525 | 38949 ft | 515 kts | 57° |
| 2026-05-07 06:57 | 31.53356 | 131.22922 | 38942 ft | 515 kts | 57° |
| 2026-05-07 06:58 | 31.56418 | 131.28874 | 38942 ft | 514 kts | 57° |
| 2026-05-07 06:58 | 31.60106 | 131.36055 | 38936 ft | 514 kts | 57° |
| 2026-05-07 06:59 | 31.64388 | 131.44385 | 38933 ft | 514 kts | 57° |
| 2026-05-07 06:59 | 31.68074 | 131.51581 | 38926 ft | 515 kts | 57° |
| 2026-05-07 07:00 | 31.71135 | 131.57575 | 38934 ft | 514 kts | 57° |
| 2026-05-07 07:00 | 31.74775 | 131.64712 | 38928 ft | 513 kts | 57° |
| 2026-05-07 07:01 | 31.78446 | 131.71930 | 38924 ft | 513 kts | 57° |
| 2026-05-07 07:01 | 31.82089 | 131.79103 | 38927 ft | 513 kts | 57° |
| 2026-05-07 07:02 | 31.85711 | 131.86252 | 38927 ft | 511 kts | 57° |
| 2026-05-07 07:02 | 31.89955 | 131.94643 | 38927 ft | 511 kts | 57° |
| 2026-05-07 07:03 | 31.92961 | 132.00597 | 38927 ft | 511 kts | 57° |
| 2026-05-07 07:03 | 31.97167 | 132.08948 | 38932 ft | 510 kts | 57° |
| 2026-05-07 07:04 | 32.00172 | 132.14928 | 38929 ft | 511 kts | 57° |
| 2026-05-07 07:04 | 32.03789 | 132.22145 | 38930 ft | 510 kts | 57° |
| 2026-05-07 07:05 | 32.08013 | 132.30516 | 38926 ft | 509 kts | 55° |
| 2026-05-07 07:05 | 32.11362 | 132.36163 | 38925 ft | 507 kts | 49° |
| 2026-05-07 07:06 | 32.16009 | 132.42403 | 38932 ft | 503 kts | 41° |
| 2026-05-07 07:06 | 32.22078 | 132.48721 | 38934 ft | 500 kts | 35° |
| 2026-05-07 07:07 | 32.27530 | 132.53839 | 38931 ft | 499 kts | 35° |
| 2026-05-07 07:07 | 32.32034 | 132.58073 | 38922 ft | 500 kts | 35° |
| 2026-05-07 07:08 | 32.37443 | 132.63193 | 38932 ft | 499 kts | 35° |
| 2026-05-07 07:08 | 32.42874 | 132.68353 | 38927 ft | 499 kts | 36° |
| 2026-05-07 07:09 | 32.48262 | 132.73482 | 38929 ft | 500 kts | 36° |
| 2026-05-07 07:09 | 32.53672 | 132.78641 | 38925 ft | 500 kts | 36° |
| 2026-05-07 07:10 | 32.59066 | 132.83795 | 38932 ft | 499 kts | 36° |
| 2026-05-07 07:10 | 32.64453 | 132.88953 | 38931 ft | 499 kts | 36° |
| 2026-05-07 07:11 | 32.69832 | 132.94119 | 38939 ft | 500 kts | 37° |
| 2026-05-07 07:11 | 32.75737 | 133.00769 | 38941 ft | 502 kts | 45° |
| 2026-05-07 07:12 | 32.79442 | 133.06045 | 38949 ft | 504 kts | 51° |
| 2026-05-07 07:12 | 32.83512 | 133.12833 | 38933 ft | 504 kts | 53° |
| 2026-05-07 07:13 | 32.87513 | 133.19643 | 38929 ft | 504 kts | 53° |
| 2026-05-07 07:13 | 32.91539 | 133.26466 | 38929 ft | 504 kts | 53° |
| 2026-05-07 07:14 | 32.95555 | 133.33269 | 38923 ft | 505 kts | 53° |
| 2026-05-07 07:14 | 32.99579 | 133.40091 | 38167 ft | 508 kts | 53° |
| 2026-05-07 07:15 | 33.01606 | 133.43532 | 37466 ft | 507 kts | 53° |
| 2026-05-07 07:15 | 33.03624 | 133.46957 | 36857 ft | 505 kts | 53° |
| 2026-05-07 07:15 | 33.06287 | 133.51476 | 36079 ft | 502 kts | 53° |
| 2026-05-07 07:15 | 33.07639 | 133.53772 | 35648 ft | 501 kts | 53° |
| 2026-05-07 07:16 | 33.09616 | 133.57134 | 35038 ft | 500 kts | 53° |
| 2026-05-07 07:16 | 33.11611 | 133.60530 | 34413 ft | 499 kts | 53° |
| 2026-05-07 07:16 | 33.13593 | 133.63913 | 33771 ft | 498 kts | 53° |
| 2026-05-07 07:16 | 33.16233 | 133.68425 | 32975 ft | 497 kts | 54° |
| 2026-05-07 07:17 | 33.17543 | 133.70664 | 32587 ft | 497 kts | 54° |
| 2026-05-07 07:17 | 33.19517 | 133.74042 | 31978 ft | 498 kts | 54° |
| 2026-05-07 07:17 | 33.21490 | 133.77418 | 31357 ft | 498 kts | 54° |
| 2026-05-07 07:17 | 33.24107 | 133.81909 | 30482 ft | 500 kts | 54° |
| 2026-05-07 07:18 | 33.25429 | 133.84181 | 30020 ft | 501 kts | 54° |
| 2026-05-07 07:18 | 33.27424 | 133.87614 | 29324 ft | 503 kts | 54° |
| 2026-05-07 07:18 | 33.29423 | 133.91057 | 28616 ft | 505 kts | 54° |
| 2026-05-07 07:18 | 33.32083 | 133.95633 | 27720 ft | 506 kts | 54° |
| 2026-05-07 07:19 | 33.34082 | 133.99072 | 27310 ft | 503 kts | 54° |
| 2026-05-07 07:19 | 33.35405 | 134.01349 | 27022 ft | 501 kts | 54° |
| 2026-05-07 07:19 | 33.38023 | 134.05864 | 26378 ft | 495 kts | 54° |
| 2026-05-07 07:19 | 33.39314 | 134.08093 | 26089 ft | 492 kts | 54° |
| 2026-05-07 07:20 | 33.41244 | 134.11432 | 25647 ft | 487 kts | 54° |
| 2026-05-07 07:20 | 33.43160 | 134.14749 | 25213 ft | 482 kts | 54° |
| 2026-05-07 07:20 | 33.45068 | 134.18059 | 24763 ft | 478 kts | 54° |
| 2026-05-07 07:20 | 33.46946 | 134.21313 | 24327 ft | 474 kts | 54° |
| 2026-05-07 07:21 | 33.48796 | 134.24519 | 23903 ft | 470 kts | 54° |
| 2026-05-07 07:21 | 33.50640 | 134.27718 | 23492 ft | 465 kts | 54° |
| 2026-05-07 07:21 | 33.52468 | 134.30894 | 23088 ft | 461 kts | 53° |
| 2026-05-07 07:21 | 33.54254 | 134.34003 | 22680 ft | 457 kts | 54° |
| 2026-05-07 07:22 | 33.56056 | 134.37138 | 22253 ft | 454 kts | 54° |
| 2026-05-07 07:22 | 33.57830 | 134.40230 | 21833 ft | 450 kts | 53° |
| 2026-05-07 07:22 | 33.59655 | 134.43268 | 21369 ft | 446 kts | 47° |
| 2026-05-07 07:22 | 33.62846 | 134.46204 | 20772 ft | 435 kts | 22° |
| 2026-05-07 07:23 | 33.64722 | 134.47049 | 20477 ft | 428 kts | 11° |
| 2026-05-07 07:23 | 33.67629 | 134.47728 | 20054 ft | 423 kts | 6° |
| 2026-05-07 07:23 | 33.70518 | 134.48317 | 19632 ft | 421 kts | 6° |
| 2026-05-07 07:23 | 33.73382 | 134.48909 | 19201 ft | 419 kts | 7° |
| 2026-05-07 07:24 | 33.76277 | 134.49521 | 18763 ft | 417 kts | 7° |
| 2026-05-07 07:24 | 33.79108 | 134.50130 | 18325 ft | 415 kts | 7° |
| 2026-05-07 07:24 | 33.81941 | 134.50746 | 17893 ft | 413 kts | 7° |
| 2026-05-07 07:24 | 33.84739 | 134.51361 | 17469 ft | 410 kts | 7° |
| 2026-05-07 07:25 | 33.90336 | 134.52594 | 16612 ft | 407 kts | 7° |
| 2026-05-07 07:25 | 33.93121 | 134.53210 | 16187 ft | 405 kts | 7° |
| 2026-05-07 07:25 | 33.95885 | 134.53822 | 15744 ft | 404 kts | 7° |
| 2026-05-07 07:26 | 33.98630 | 134.54430 | 15310 ft | 402 kts | 7° |
| 2026-05-07 07:26 | 34.01378 | 134.55039 | 14886 ft | 400 kts | 7° |
| 2026-05-07 07:26 | 34.04115 | 134.55646 | 14452 ft | 398 kts | 7° |
| 2026-05-07 07:26 | 34.06855 | 134.56256 | 14007 ft | 397 kts | 7° |
| 2026-05-07 07:27 | 34.09564 | 134.56856 | 13557 ft | 396 kts | 7° |
| 2026-05-07 07:27 | 34.12272 | 134.57459 | 13118 ft | 394 kts | 7° |
| 2026-05-07 07:27 | 34.14936 | 134.58050 | 12688 ft | 392 kts | 8° |
| 2026-05-07 07:27 | 34.17565 | 134.58987 | 12228 ft | 394 kts | 23° |
| 2026-05-07 07:28 | 34.19829 | 134.60809 | 11793 ft | 395 kts | 41° |
| 2026-05-07 07:28 | 34.21651 | 134.63249 | 11372 ft | 393 kts | 50° |
| 2026-05-07 07:28 | 34.23364 | 134.65816 | 10940 ft | 391 kts | 51° |
| 2026-05-07 07:28 | 34.25068 | 134.68367 | 10686 ft | 381 kts | 51° |
| 2026-05-07 07:29 | 34.26698 | 134.70772 | 10549 ft | 358 kts | 50° |
| 2026-05-07 07:29 | 34.28239 | 134.73018 | 10459 ft | 336 kts | 50° |
| 2026-05-07 07:29 | 34.29689 | 134.75119 | 10371 ft | 316 kts | 50° |
| 2026-05-07 07:29 | 34.31073 | 134.77124 | 10312 ft | 308 kts | 50° |
| 2026-05-07 07:30 | 34.32431 | 134.79091 | 10216 ft | 303 kts | 50° |
| 2026-05-07 07:30 | 34.33758 | 134.81017 | 10128 ft | 298 kts | 50° |
| 2026-05-07 07:30 | 34.35088 | 134.82948 | 10035 ft | 295 kts | 50° |
| 2026-05-07 07:30 | 34.36388 | 134.84834 | 9819 ft | 295 kts | 50° |
| 2026-05-07 07:31 | 34.37718 | 134.86768 | 9510 ft | 296 kts | 50° |
| 2026-05-07 07:31 | 34.39033 | 134.88681 | 9197 ft | 296 kts | 50° |
| 2026-05-07 07:31 | 34.40337 | 134.90581 | 8890 ft | 296 kts | 50° |
| 2026-05-07 07:31 | 34.41661 | 134.92509 | 8597 ft | 294 kts | 50° |
| 2026-05-07 07:32 | 34.42960 | 134.94403 | 8285 ft | 293 kts | 50° |
| 2026-05-07 07:32 | 34.44257 | 134.96292 | 8003 ft | 292 kts | 50° |
| 2026-05-07 07:32 | 34.45545 | 134.98169 | 7707 ft | 291 kts | 50° |
| 2026-05-07 07:32 | 34.46847 | 135.00067 | 7403 ft | 290 kts | 50° |
| 2026-05-07 07:33 | 34.48128 | 135.01939 | 7105 ft | 289 kts | 50° |
| 2026-05-07 07:33 | 34.49416 | 135.03819 | 6809 ft | 288 kts | 50° |
| 2026-05-07 07:33 | 34.50699 | 135.05695 | 6514 ft | 287 kts | 50° |
| 2026-05-07 07:33 | 34.51962 | 135.07542 | 6220 ft | 286 kts | 50° |
| 2026-05-07 07:34 | 34.53230 | 135.09396 | 5971 ft | 283 kts | 50° |
| 2026-05-07 07:34 | 34.54475 | 135.11220 | 5700 ft | 276 kts | 50° |
| 2026-05-07 07:34 | 34.55674 | 135.12975 | 5459 ft | 270 kts | 50° |
| 2026-05-07 07:34 | 34.56861 | 135.14712 | 5209 ft | 265 kts | 50° |
| 2026-05-07 07:35 | 34.58033 | 135.16429 | 4974 ft | 261 kts | 50° |
| 2026-05-07 07:35 | 34.59179 | 135.18111 | 4722 ft | 257 kts | 50° |
| 2026-05-07 07:35 | 34.60248 | 135.19852 | 4451 ft | 253 kts | 64° |
| 2026-05-07 07:35 | 34.60746 | 135.21864 | 4220 ft | 247 kts | 87° |
| 2026-05-07 07:36 | 34.60641 | 135.23935 | 3992 ft | 242 kts | 101° |
| 2026-05-07 07:36 | 34.60308 | 135.25903 | 3789 ft | 238 kts | 106° |
| 2026-05-07 07:36 | 34.59838 | 135.27824 | 3626 ft | 231 kts | 111° |
| 2026-05-07 07:36 | 34.59259 | 135.29611 | 3481 ft | 221 kts | 115° |
| 2026-05-07 07:37 | 34.58579 | 135.31285 | 3148 ft | 220 kts | 120° |
| 2026-05-07 07:37 | 34.57785 | 135.32878 | 2801 ft | 220 kts | 125° |
| 2026-05-07 07:37 | 34.56891 | 135.34378 | 2787 ft | 221 kts | 130° |
| 2026-05-07 07:37 | 34.55847 | 135.35763 | 2742 ft | 220 kts | 144° |
| 2026-05-07 07:38 | 34.54417 | 135.36255 | 2581 ft | 217 kts | 187° |
| 2026-05-07 07:38 | 34.53038 | 135.35547 | 2387 ft | 214 kts | 216° |
| 2026-05-07 07:38 | 34.51987 | 135.34329 | 2119 ft | 205 kts | 228° |
| 2026-05-07 07:38 | 34.51125 | 135.33006 | 1850 ft | 197 kts | 231° |
| 2026-05-07 07:39 | 34.50304 | 135.31711 | 1587 ft | 188 kts | 231° |
| 2026-05-07 07:39 | 34.49506 | 135.30502 | 1348 ft | 178 kts | 230° |
| 2026-05-07 07:39 | 34.48745 | 135.29376 | 1122 ft | 166 kts | 230° |
| 2026-05-07 07:39 | 34.48045 | 135.28340 | 914 ft | 154 kts | 230° |
| 2026-05-07 07:40 | 34.47360 | 135.27324 | 731 ft | 154 kts | 231° |
| 2026-05-07 07:40 | 34.46685 | 135.26325 | 542 ft | 153 kts | 231° |
| 2026-05-07 07:40 | 34.46010 | 135.25328 | 334 ft | 153 kts | 231° |
| 2026-05-07 07:40 | 34.45336 | 135.24333 | 158 ft | 152 kts | 232° |
| 2026-05-07 07:41 | 34.44690 | 135.23343 | 40 ft | 141 kts | 232° |
| 2026-05-07 07:41 | 34.44191 | 135.22597 | 40 ft | 88 kts | 229° |
| 2026-05-07 07:41 | 34.43898 | 135.22168 | 40 ft | 54 kts | 231° |
| 2026-05-07 07:41 | 34.43675 | 135.21846 | 40 ft | 44 kts | 224° |
| 2026-05-07 07:42 | 34.43438 | 135.21683 | 40 ft | 26 kts | 186° |
| 2026-05-07 07:42 | 34.43396 | 135.21762 | 40 ft | 11 kts | 66° |
| 2026-05-07 07:42 | 34.43441 | 135.21828 | 40 ft | 14 kts | 49° |
| 2026-05-07 07:42 | 34.43530 | 135.21959 | 40 ft | 25 kts | 51° |
| 2026-05-07 07:43 | 34.43663 | 135.22160 | 40 ft | 35 kts | 51° |
| 2026-05-07 07:43 | 34.43779 | 135.22339 | 40 ft | 26 kts | 59° |
| 2026-05-07 07:43 | 34.43722 | 135.22476 | 40 ft | 24 kts | 141° |
| 2026-05-07 07:43 | 34.43562 | 135.22630 | 40 ft | 34 kts | 141° |
| 2026-05-07 07:44 | 34.43348 | 135.22839 | 40 ft | 42 kts | 141° |
| 2026-05-07 07:44 | 34.43118 | 135.23064 | 40 ft | 43 kts | 140° |
| 2026-05-07 07:44 | 34.42939 | 135.23239 | 40 ft | 21 kts | 137° |
| 2026-05-07 07:44 | 34.42952 | 135.23373 | 40 ft | 18 kts | 51° |
| 2026-05-07 07:45 | 34.43021 | 135.23502 | 40 ft | 18 kts | 88° |
| 2026-05-07 07:45 | 34.43055 | 135.23645 | 40 ft | 13 kts | 55° |
| 2026-05-07 07:45 | 34.43060 | 135.23695 | 40 ft | 6 kts | 117° |
| 2026-05-07 07:45 | 34.43037 | 135.23730 | 40 ft | 0 kts | 136° |